sensor_id;sensor_type;location;lat;lon;timestamp;pressure;altitude;pressure_sealevel;temperature
49785;BMP280;35679;38.732;-121.358;2023-03-16T00:02:14;101040.41;;;16.94
49785;BMP280;35679;38.732;-121.358;2023-03-16T00:05:03;101046.78;;;17.00
49785;BMP280;35679;38.732;-121.358;2023-03-16T00:07:53;101042.06;;;17.02
49785;BMP280;35679;38.732;-121.358;2023-03-16T00:10:44;101046.38;;;17.03
49785;BMP280;35679;38.732;-121.358;2023-03-16T00:13:34;101046.78;;;17.06
49785;BMP280;35679;38.732;-121.358;2023-03-16T00:16:23;101047.41;;;17.08
49785;BMP280;35679;38.732;-121.358;2023-03-16T00:19:13;101054.19;;;17.10
49785;BMP280;35679;38.732;-121.358;2023-03-16T00:22:02;101059.53;;;17.10
49785;BMP280;35679;38.732;-121.358;2023-03-16T00:24:55;101058.94;;;17.15
49785;BMP280;35679;38.732;-121.358;2023-03-16T00:27:44;101061.38;;;17.16
49785;BMP280;35679;38.732;-121.358;2023-03-16T00:30:33;101059.75;;;17.15
49785;BMP280;35679;38.732;-121.358;2023-03-16T00:33:23;101058.53;;;17.18
49785;BMP280;35679;38.732;-121.358;2023-03-16T00:36:12;101052.81;;;17.21
49785;BMP280;35679;38.732;-121.358;2023-03-16T00:39:04;101051.56;;;17.23
49785;BMP280;35679;38.732;-121.358;2023-03-16T00:41:54;101057.72;;;17.24
49785;BMP280;35679;38.732;-121.358;2023-03-16T00:44:46;101048.69;;;17.25
49785;BMP280;35679;38.732;-121.358;2023-03-16T00:47:36;101057.34;;;17.27
49785;BMP280;35679;38.732;-121.358;2023-03-16T00:50:25;101065.16;;;17.28
49785;BMP280;35679;38.732;-121.358;2023-03-16T00:53:15;101058.78;;;17.29
49785;BMP280;35679;38.732;-121.358;2023-03-16T00:56:05;101061.25;;;17.31
49785;BMP280;35679;38.732;-121.358;2023-03-16T00:58:54;101058.59;;;17.31
49785;BMP280;35679;38.732;-121.358;2023-03-16T01:01:45;101056.75;;;17.31
49785;BMP280;35679;38.732;-121.358;2023-03-16T01:04:35;101061.25;;;17.31
49785;BMP280;35679;38.732;-121.358;2023-03-16T01:07:24;101060.84;;;17.27
49785;BMP280;35679;38.732;-121.358;2023-03-16T01:10:14;101060.63;;;17.29
49785;BMP280;35679;38.732;-121.358;2023-03-16T01:13:05;101057.56;;;17.32
49785;BMP280;35679;38.732;-121.358;2023-03-16T01:15:55;101064.34;;;17.34
49785;BMP280;35679;38.732;-121.358;2023-03-16T01:18:44;101057.16;;;17.35
49785;BMP280;35679;38.732;-121.358;2023-03-16T01:21:35;101069.69;;;17.34
49785;BMP280;35679;38.732;-121.358;2023-03-16T01:24:26;101076.66;;;17.35
49785;BMP280;35679;38.732;-121.358;2023-03-16T01:27:15;101067.63;;;17.36
49785;BMP280;35679;38.732;-121.358;2023-03-16T01:30:05;101074.81;;;17.36
49785;BMP280;35679;38.732;-121.358;2023-03-16T01:32:55;101072.16;;;17.36
49785;BMP280;35679;38.732;-121.358;2023-03-16T01:35:54;101072.97;;;17.36
49785;BMP280;35679;38.732;-121.358;2023-03-16T01:38:46;101083.03;;;17.34
49785;BMP280;35679;38.732;-121.358;2023-03-16T01:41:36;101084.66;;;17.35
49785;BMP280;35679;38.732;-121.358;2023-03-16T01:44:27;101083.63;;;17.36
49785;BMP280;35679;38.732;-121.358;2023-03-16T01:47:23;101079.31;;;17.35
49785;BMP280;35679;38.732;-121.358;2023-03-16T01:50:13;101078.28;;;17.36
49785;BMP280;35679;38.732;-121.358;2023-03-16T01:53:05;101083.84;;;17.35
49785;BMP280;35679;38.732;-121.358;2023-03-16T01:55:55;101083.03;;;17.34
49785;BMP280;35679;38.732;-121.358;2023-03-16T01:58:45;101086.72;;;17.33
49785;BMP280;35679;38.732;-121.358;2023-03-16T02:01:35;101093.88;;;17.33
49785;BMP280;35679;38.732;-121.358;2023-03-16T02:04:39;101093.28;;;17.31
49785;BMP280;35679;38.732;-121.358;2023-03-16T02:07:39;101093.44;;;17.29
49785;BMP280;35679;38.732;-121.358;2023-03-16T02:10:31;101099.84;;;17.28
49785;BMP280;35679;38.732;-121.358;2023-03-16T02:13:22;101106.38;;;17.26
49785;BMP280;35679;38.732;-121.358;2023-03-16T02:16:12;101101.06;;;17.26
49785;BMP280;35679;38.732;-121.358;2023-03-16T02:19:15;101102.88;;;17.25
49785;BMP280;35679;38.732;-121.358;2023-03-16T02:22:08;101106.53;;;17.24
49785;BMP280;35679;38.732;-121.358;2023-03-16T02:24:58;101101.63;;;17.21
49785;BMP280;35679;38.732;-121.358;2023-03-16T02:28:40;101107.97;;;17.20
49785;BMP280;35679;38.732;-121.358;2023-03-16T02:31:20;101114.31;;;17.19
49785;BMP280;35679;38.732;-121.358;2023-03-16T02:34:13;101111.84;;;17.18
49785;BMP280;35679;38.732;-121.358;2023-03-16T02:37:05;101120.06;;;17.16
49785;BMP280;35679;38.732;-121.358;2023-03-16T02:39:55;101118.41;;;17.15
49785;BMP280;35679;38.732;-121.358;2023-03-16T02:42:44;101109.59;;;17.15
49785;BMP280;35679;38.732;-121.358;2023-03-16T02:45:42;101111.63;;;17.13
49785;BMP280;35679;38.732;-121.358;2023-03-16T02:48:55;101118.81;;;17.12
49785;BMP280;35679;38.732;-121.358;2023-03-16T02:51:46;101115.50;;;17.10
49785;BMP280;35679;38.732;-121.358;2023-03-16T02:54:37;101116.75;;;17.08
49785;BMP280;35679;38.732;-121.358;2023-03-16T02:57:28;101122.06;;;17.08
49785;BMP280;35679;38.732;-121.358;2023-03-16T03:00:22;101128.41;;;17.07
49785;BMP280;35679;38.732;-121.358;2023-03-16T03:03:13;101126.78;;;17.06
49785;BMP280;35679;38.732;-121.358;2023-03-16T03:06:03;101132.09;;;17.06
49785;BMP280;35679;38.732;-121.358;2023-03-16T03:08:55;101134.97;;;17.05
49785;BMP280;35679;38.732;-121.358;2023-03-16T03:11:45;101129.63;;;17.05
49785;BMP280;35679;38.732;-121.358;2023-03-16T03:14:35;101129.03;;;17.03
49785;BMP280;35679;38.732;-121.358;2023-03-16T03:17:28;101131.88;;;17.01
49785;BMP280;35679;38.732;-121.358;2023-03-16T03:20:18;101126.75;;;17.00
49785;BMP280;35679;38.732;-121.358;2023-03-16T03:23:09;101117.31;;;16.97
49785;BMP280;35679;38.732;-121.358;2023-03-16T03:26:01;101129.19;;;16.95
49785;BMP280;35679;38.732;-121.358;2023-03-16T03:28:53;101119.53;;;16.94
49785;BMP280;35679;38.732;-121.358;2023-03-16T03:31:43;101120.59;;;16.93
49785;BMP280;35679;38.732;-121.358;2023-03-16T03:34:33;101120.97;;;16.90
49785;BMP280;35679;38.732;-121.358;2023-03-16T03:37:24;101119.53;;;16.94
49785;BMP280;35679;38.732;-121.358;2023-03-16T03:40:15;101118.28;;;16.90
49785;BMP280;35679;38.732;-121.358;2023-03-16T03:43:07;101121.97;;;16.89
49785;BMP280;35679;38.732;-121.358;2023-03-16T03:46:02;101126.50;;;16.88
49785;BMP280;35679;38.732;-121.358;2023-03-16T03:48:53;101128.53;;;16.86
49785;BMP280;35679;38.732;-121.358;2023-03-16T03:51:43;101136.34;;;16.88
49785;BMP280;35679;38.732;-121.358;2023-03-16T03:54:36;101138.16;;;16.87
49785;BMP280;35679;38.732;-121.358;2023-03-16T03:57:32;101143.06;;;16.84
49785;BMP280;35679;38.732;-121.358;2023-03-16T04:00:21;101138.75;;;16.83
49785;BMP280;35679;38.732;-121.358;2023-03-16T04:03:11;101133.63;;;16.81
49785;BMP280;35679;38.732;-121.358;2023-03-16T04:06:04;101146.50;;;16.78
49785;BMP280;35679;38.732;-121.358;2023-03-16T04:08:55;101129.28;;;16.74
49785;BMP280;35679;38.732;-121.358;2023-03-16T04:11:46;101143.63;;;16.73
49785;BMP280;35679;38.732;-121.358;2023-03-16T04:14:36;101145.69;;;16.71
49785;BMP280;35679;38.732;-121.358;2023-03-16T04:17:28;101145.69;;;16.71
49785;BMP280;35679;38.732;-121.358;2023-03-16T04:20:19;101145.88;;;16.69
49785;BMP280;35679;38.732;-121.358;2023-03-16T04:23:09;101147.69;;;16.69
49785;BMP280;35679;38.732;-121.358;2023-03-16T04:26:00;101150.78;;;16.66
49785;BMP280;35679;38.732;-121.358;2023-03-16T04:28:51;101149.13;;;16.65
49785;BMP280;35679;38.732;-121.358;2023-03-16T04:31:44;101146.81;;;16.62
49785;BMP280;35679;38.732;-121.358;2023-03-16T04:34:33;101149.09;;;16.58
49785;BMP280;35679;38.732;-121.358;2023-03-16T04:37:25;101149.25;;;16.57
49785;BMP280;35679;38.732;-121.358;2023-03-16T04:40:15;101140.66;;;16.55
49785;BMP280;35679;38.732;-121.358;2023-03-16T04:43:11;101146.19;;;16.53
49785;BMP280;35679;38.732;-121.358;2023-03-16T04:46:04;101153.72;;;16.50
49785;BMP280;35679;38.732;-121.358;2023-03-16T04:48:55;101148.41;;;16.50
49785;BMP280;35679;38.732;-121.358;2023-03-16T04:51:48;101152.28;;;16.47
49785;BMP280;35679;38.732;-121.358;2023-03-16T04:54:39;101142.84;;;16.45
49785;BMP280;35679;38.732;-121.358;2023-03-16T04:57:32;101145.72;;;16.43
49785;BMP280;35679;38.732;-121.358;2023-03-16T05:00:23;101147.09;;;16.40
49785;BMP280;35679;38.732;-121.358;2023-03-16T05:03:23;101153.63;;;16.37
49785;BMP280;35679;38.732;-121.358;2023-03-16T05:06:12;101149.31;;;16.36
49785;BMP280;35679;38.732;-121.358;2023-03-16T05:09:05;101146.84;;;16.35
49785;BMP280;35679;38.732;-121.358;2023-03-16T05:12:11;101148.91;;;16.33
49785;BMP280;35679;38.732;-121.358;2023-03-16T05:15:04;101151.13;;;16.29
49785;BMP280;35679;38.732;-121.358;2023-03-16T05:17:59;101157.44;;;16.28
49785;BMP280;35679;38.732;-121.358;2023-03-16T05:21:04;101153.50;;;16.24
49785;BMP280;35679;38.732;-121.358;2023-03-16T05:24:13;101148.38;;;16.23
49785;BMP280;35679;38.732;-121.358;2023-03-16T05:27:11;101152.06;;;16.22
49785;BMP280;35679;38.732;-121.358;2023-03-16T05:30:20;101160.25;;;16.20
49785;BMP280;35679;38.732;-121.358;2023-03-16T05:33:14;101155.53;;;16.22
49785;BMP280;35679;38.732;-121.358;2023-03-16T05:36:08;101149.97;;;16.17
49785;BMP280;35679;38.732;-121.358;2023-03-16T05:39:00;101154.63;;;16.15
49785;BMP280;35679;38.732;-121.358;2023-03-16T05:41:56;101154.84;;;16.14
49785;BMP280;35679;38.732;-121.358;2023-03-16T05:45:07;101158.72;;;16.11
49785;BMP280;35679;38.732;-121.358;2023-03-16T05:48:05;101157.06;;;16.10
49785;BMP280;35679;38.732;-121.358;2023-03-16T05:51:00;101161.75;;;16.08
49785;BMP280;35679;38.732;-121.358;2023-03-16T05:53:53;101159.09;;;16.08
49785;BMP280;35679;38.732;-121.358;2023-03-16T05:56:55;101165.44;;;16.07
49785;BMP280;35679;38.732;-121.358;2023-03-16T05:59:44;101158.84;;;16.03
49785;BMP280;35679;38.732;-121.358;2023-03-16T06:02:34;101167.03;;;16.02
49785;BMP280;35679;38.732;-121.358;2023-03-16T06:05:23;101161.88;;;16.00
49785;BMP280;35679;38.732;-121.358;2023-03-16T06:08:13;101168.03;;;16.01
49785;BMP280;35679;38.732;-121.358;2023-03-16T06:11:06;101161.47;;;15.97
49785;BMP280;35679;38.732;-121.358;2023-03-16T06:13:56;101162.66;;;15.94
49785;BMP280;35679;38.732;-121.358;2023-03-16T06:16:45;101166.34;;;15.93
49785;BMP280;35679;38.732;-121.358;2023-03-16T06:19:35;101162.22;;;15.91
49785;BMP280;35679;38.732;-121.358;2023-03-16T06:22:25;101164.25;;;15.89
49785;BMP280;35679;38.732;-121.358;2023-03-16T06:25:15;101164.44;;;15.87
49785;BMP280;35679;38.732;-121.358;2023-03-16T06:28:06;101167.47;;;15.84
49785;BMP280;35679;38.732;-121.358;2023-03-16T06:30:57;101165.84;;;15.83
49785;BMP280;35679;38.732;-121.358;2023-03-16T06:33:51;101170.72;;;15.80
49785;BMP280;35679;38.732;-121.358;2023-03-16T06:36:42;101169.88;;;15.79
49785;BMP280;35679;38.732;-121.358;2023-03-16T06:39:32;101167.41;;;15.78
49785;BMP280;35679;38.732;-121.358;2023-03-16T06:42:22;101169.44;;;15.76
49785;BMP280;35679;38.732;-121.358;2023-03-16T06:45:11;101178.44;;;15.75
49785;BMP280;35679;38.732;-121.358;2023-03-16T06:48:02;101176.13;;;15.72
49785;BMP280;35679;38.732;-121.358;2023-03-16T06:50:51;101173.88;;;15.69
49785;BMP280;35679;38.732;-121.358;2023-03-16T06:53:45;101179.19;;;15.69
49785;BMP280;35679;38.732;-121.358;2023-03-16T06:56:34;101174.41;;;15.65
49785;BMP280;35679;38.732;-121.358;2023-03-16T06:59:24;101182.41;;;15.65
49785;BMP280;35679;38.732;-121.358;2023-03-16T07:02:14;101175.69;;;15.69
49785;BMP280;35679;38.732;-121.358;2023-03-16T07:05:05;101181.00;;;15.69
49785;BMP280;35679;38.732;-121.358;2023-03-16T07:07:55;101177.19;;;15.71
49785;BMP280;35679;38.732;-121.358;2023-03-16T07:10:46;101175.06;;;15.67
49785;BMP280;35679;38.732;-121.358;2023-03-16T07:13:35;101166.63;;;15.63
49785;BMP280;35679;38.732;-121.358;2023-03-16T07:16:26;101168.28;;;15.64
49785;BMP280;35679;38.732;-121.358;2023-03-16T07:19:18;101152.88;;;15.60
49785;BMP280;35679;38.732;-121.358;2023-03-16T07:22:09;101156.53;;;15.59
49785;BMP280;35679;38.732;-121.358;2023-03-16T07:25:00;101152.63;;;15.55
49785;BMP280;35679;38.732;-121.358;2023-03-16T07:27:49;101154.81;;;15.51
49785;BMP280;35679;38.732;-121.358;2023-03-16T07:30:45;101146.44;;;15.48
49785;BMP280;35679;38.732;-121.358;2023-03-16T07:33:55;101148.44;;;15.46
49785;BMP280;35679;38.732;-121.358;2023-03-16T07:36:56;101145.97;;;15.44
49785;BMP280;35679;38.732;-121.358;2023-03-16T07:39:48;101152.31;;;15.43
49785;BMP280;35679;38.732;-121.358;2023-03-16T07:42:39;101149.00;;;15.41
49785;BMP280;35679;38.732;-121.358;2023-03-16T07:45:32;101149.19;;;15.40
49785;BMP280;35679;38.732;-121.358;2023-03-16T07:48:22;101152.84;;;15.39
49785;BMP280;35679;38.732;-121.358;2023-03-16T07:51:17;101154.91;;;15.37
49785;BMP280;35679;38.732;-121.358;2023-03-16T07:54:08;101154.06;;;15.36
49785;BMP280;35679;38.732;-121.358;2023-03-16T07:56:58;101158.75;;;15.34
49785;BMP280;35679;38.732;-121.358;2023-03-16T07:59:52;101161.56;;;15.33
49785;BMP280;35679;38.732;-121.358;2023-03-16T08:02:42;101170.59;;;15.32
49785;BMP280;35679;38.732;-121.358;2023-03-16T08:05:33;101169.94;;;15.30
49785;BMP280;35679;38.732;-121.358;2023-03-16T08:08:28;101186.88;;;15.29
49785;BMP280;35679;38.732;-121.358;2023-03-16T08:11:18;101196.06;;;15.26
49785;BMP280;35679;38.732;-121.358;2023-03-16T08:14:16;101189.28;;;15.24
49785;BMP280;35679;38.732;-121.358;2023-03-16T08:17:31;101195.59;;;15.23
49785;BMP280;35679;38.732;-121.358;2023-03-16T08:20:25;101198.25;;;15.23
49785;BMP280;35679;38.732;-121.358;2023-03-16T08:23:16;101198.63;;;15.20
49785;BMP280;35679;38.732;-121.358;2023-03-16T08:26:06;101210.25;;;15.19
49785;BMP280;35679;38.732;-121.358;2023-03-16T08:28:58;101213.09;;;15.17
49785;BMP280;35679;38.732;-121.358;2023-03-16T08:31:54;101210.63;;;15.16
49785;BMP280;35679;38.732;-121.358;2023-03-16T08:34:55;101223.28;;;15.14
49785;BMP280;35679;38.732;-121.358;2023-03-16T08:37:44;101218.16;;;15.12
49785;BMP280;35679;38.732;-121.358;2023-03-16T08:40:34;101216.69;;;15.10
49785;BMP280;35679;38.732;-121.358;2023-03-16T08:43:25;101223.00;;;15.09
49785;BMP280;35679;38.732;-121.358;2023-03-16T08:46:17;101221.34;;;15.08
49785;BMP280;35679;38.732;-121.358;2023-03-16T08:49:12;101223.38;;;15.06
49785;BMP280;35679;38.732;-121.358;2023-03-16T08:52:03;101231.34;;;15.06
49785;BMP280;35679;38.732;-121.358;2023-03-16T08:54:53;101231.50;;;15.05
49785;BMP280;35679;38.732;-121.358;2023-03-16T08:57:50;101232.69;;;15.02
49785;BMP280;35679;38.732;-121.358;2023-03-16T09:00:40;101241.66;;;15.01
49785;BMP280;35679;38.732;-121.358;2023-03-16T09:03:34;101250.03;;;14.98
49785;BMP280;35679;38.732;-121.358;2023-03-16T09:06:23;101242.25;;;14.97
49785;BMP280;35679;38.732;-121.358;2023-03-16T09:09:13;101256.34;;;14.97
49785;BMP280;35679;38.732;-121.358;2023-03-16T09:12:03;101252.69;;;14.98
49785;BMP280;35679;38.732;-121.358;2023-03-16T09:14:54;101256.34;;;14.97
49785;BMP280;35679;38.732;-121.358;2023-03-16T09:17:44;101256.53;;;14.96
49785;BMP280;35679;38.732;-121.358;2023-03-16T09:20:33;101255.88;;;14.94
49785;BMP280;35679;38.732;-121.358;2023-03-16T09:23:24;101260.56;;;14.92
49785;BMP280;35679;38.732;-121.358;2023-03-16T09:26:15;101259.91;;;14.90
49785;BMP280;35679;38.732;-121.358;2023-03-16T09:29:04;101262.09;;;14.86
49785;BMP280;35679;38.732;-121.358;2023-03-16T09:31:54;101263.13;;;14.85
49785;BMP280;35679;38.732;-121.358;2023-03-16T09:34:44;101259.00;;;14.83
49785;BMP280;35679;38.732;-121.358;2023-03-16T09:37:34;101257.53;;;14.80
49785;BMP280;35679;38.732;-121.358;2023-03-16T09:40:34;101266.50;;;14.79
49785;BMP280;35679;38.732;-121.358;2023-03-16T09:46:50;101259.88;;;14.75
49785;BMP280;35679;38.732;-121.358;2023-03-16T09:49:45;101264.56;;;14.73
49785;BMP280;35679;38.732;-121.358;2023-03-16T09:55:38;101264.75;;;14.72
49785;BMP280;35679;38.732;-121.358;2023-03-16T09:58:31;101270.22;;;14.70
49785;BMP280;35679;38.732;-121.358;2023-03-16T10:01:50;101264.28;;;14.68
49785;BMP280;35679;38.732;-121.358;2023-03-16T10:05:06;101266.28;;;14.66
49785;BMP280;35679;38.732;-121.358;2023-03-16T10:08:20;101268.94;;;14.66
49785;BMP280;35679;38.732;-121.358;2023-03-16T10:14:46;101270.31;;;14.62
49785;BMP280;35679;38.732;-121.358;2023-03-16T10:20:37;101270.03;;;14.57
49785;BMP280;35679;38.732;-121.358;2023-03-16T10:23:32;101264.72;;;14.57
49785;BMP280;35679;38.732;-121.358;2023-03-16T10:26:24;101263.06;;;14.56
49785;BMP280;35679;38.732;-121.358;2023-03-16T10:29:16;101262.25;;;14.56
49785;BMP280;35679;38.732;-121.358;2023-03-16T10:32:16;101257.28;;;14.53
49785;BMP280;35679;38.732;-121.358;2023-03-16T10:38:42;101270.38;;;14.54
49785;BMP280;35679;38.732;-121.358;2023-03-16T10:41:39;101274.38;;;14.50
49785;BMP280;35679;38.732;-121.358;2023-03-16T10:44:30;101279.06;;;14.48
49785;BMP280;35679;38.732;-121.358;2023-03-16T10:47:27;101285.38;;;14.47
49785;BMP280;35679;38.732;-121.358;2023-03-16T10:50:23;101279.59;;;14.44
49785;BMP280;35679;38.732;-121.358;2023-03-16T10:53:28;101294.72;;;14.43
49785;BMP280;35679;38.732;-121.358;2023-03-16T10:56:23;101289.75;;;14.41
49785;BMP280;35679;38.732;-121.358;2023-03-16T10:59:14;101299.72;;;14.39
49785;BMP280;35679;38.732;-121.358;2023-03-16T11:02:18;101297.06;;;14.39
49785;BMP280;35679;38.732;-121.358;2023-03-16T11:05:12;101294.56;;;14.37
49785;BMP280;35679;38.732;-121.358;2023-03-16T11:08:07;101304.56;;;14.35
49785;BMP280;35679;38.732;-121.358;2023-03-16T11:11:08;101300.25;;;14.34
49785;BMP280;35679;38.732;-121.358;2023-03-16T11:14:00;101303.91;;;14.33
49785;BMP280;35679;38.732;-121.358;2023-03-16T11:17:15;101297.94;;;14.31
49785;BMP280;35679;38.732;-121.358;2023-03-16T11:20:14;101299.78;;;14.31
49785;BMP280;35679;38.732;-121.358;2023-03-16T11:23:08;101309.56;;;14.30
49785;BMP280;35679;38.732;-121.358;2023-03-16T11:26:02;101308.91;;;14.28
49785;BMP280;35679;38.732;-121.358;2023-03-16T11:29:15;101312.56;;;14.27
49785;BMP280;35679;38.732;-121.358;2023-03-16T11:32:19;101298.47;;;14.27
49785;BMP280;35679;38.732;-121.358;2023-03-16T11:35:17;101303.13;;;14.25
49785;BMP280;35679;38.732;-121.358;2023-03-16T11:38:18;101296.81;;;14.26
49785;BMP280;35679;38.732;-121.358;2023-03-16T11:41:11;101299.84;;;14.23
49785;BMP280;35679;38.732;-121.358;2023-03-16T11:50:23;101298.50;;;14.19
49785;BMP280;35679;38.732;-121.358;2023-03-16T11:56:36;101304.84;;;14.18
49785;BMP280;35679;38.732;-121.358;2023-03-16T12:06:26;101317.97;;;14.11
49785;BMP280;35679;38.732;-121.358;2023-03-16T12:16:03;101322.13;;;14.06
49785;BMP280;35679;38.732;-121.358;2023-03-16T12:19:21;101325.59;;;14.06
49785;BMP280;35679;38.732;-121.358;2023-03-16T12:22:20;101327.44;;;14.06
49785;BMP280;35679;38.732;-121.358;2023-03-16T12:25:20;101333.06;;;14.03
49785;BMP280;35679;38.732;-121.358;2023-03-16T12:28:24;101332.09;;;14.04
49785;BMP280;35679;38.732;-121.358;2023-03-16T12:34:28;101336.75;;;14.02
49785;BMP280;35679;38.732;-121.358;2023-03-16T12:37:42;101345.03;;;13.99
49785;BMP280;35679;38.732;-121.358;2023-03-16T12:40:38;101349.53;;;13.98
49785;BMP280;35679;38.732;-121.358;2023-03-16T12:43:53;101339.09;;;13.97
49785;BMP280;35679;38.732;-121.358;2023-03-16T12:49:36;101345.41;;;13.96
49785;BMP280;35679;38.732;-121.358;2023-03-16T12:52:26;101343.09;;;13.93
49785;BMP280;35679;38.732;-121.358;2023-03-16T12:58:24;101359.34;;;13.90
49785;BMP280;35679;38.732;-121.358;2023-03-16T13:01:16;101357.88;;;13.87
49785;BMP280;35679;38.732;-121.358;2023-03-16T13:04:19;101366.00;;;13.86
49785;BMP280;35679;38.732;-121.358;2023-03-16T13:07:21;101365.34;;;13.84
49785;BMP280;35679;38.732;-121.358;2023-03-16T13:10:13;101360.03;;;13.84
49785;BMP280;35679;38.732;-121.358;2023-03-16T13:13:13;101363.69;;;13.83
49785;BMP280;35679;38.732;-121.358;2023-03-16T13:16:08;101378.78;;;13.82
49785;BMP280;35679;38.732;-121.358;2023-03-16T13:18:58;101382.44;;;13.81
49785;BMP280;35679;38.732;-121.358;2023-03-16T13:22:18;101376.31;;;13.81
49785;BMP280;35679;38.732;-121.358;2023-03-16T13:28:17;101382.78;;;13.78
49785;BMP280;35679;38.732;-121.358;2023-03-16T13:31:39;101391.75;;;13.77
49785;BMP280;35679;38.732;-121.358;2023-03-16T13:34:31;101392.56;;;13.78
49785;BMP280;35679;38.732;-121.358;2023-03-16T13:37:22;101401.50;;;13.77
49785;BMP280;35679;38.732;-121.358;2023-03-16T13:40:21;101394.91;;;13.73
49785;BMP280;35679;38.732;-121.358;2023-03-16T13:43:17;101398.53;;;13.72
49785;BMP280;35679;38.732;-121.358;2023-03-16T13:46:18;101394.91;;;13.73
49785;BMP280;35679;38.732;-121.358;2023-03-16T13:49:11;101403.84;;;13.72
49785;BMP280;35679;38.732;-121.358;2023-03-16T13:52:04;101409.31;;;13.71
49785;BMP280;35679;38.732;-121.358;2023-03-16T13:54:55;101412.16;;;13.69
49785;BMP280;35679;38.732;-121.358;2023-03-16T13:57:46;101414.13;;;13.67
49785;BMP280;35679;38.732;-121.358;2023-03-16T14:00:42;101412.50;;;13.66
49785;BMP280;35679;38.732;-121.358;2023-03-16T14:03:37;101420.59;;;13.65
49785;BMP280;35679;38.732;-121.358;2023-03-16T14:09:39;101428.91;;;13.62
49785;BMP280;35679;38.732;-121.358;2023-03-16T14:13:06;101434.88;;;13.64
49785;BMP280;35679;38.732;-121.358;2023-03-16T14:16:17;101438.53;;;13.63
49785;BMP280;35679;38.732;-121.358;2023-03-16T14:19:20;101443.00;;;13.62
49785;BMP280;35679;38.732;-121.358;2023-03-16T14:22:52;101446.81;;;13.60
49785;BMP280;35679;38.732;-121.358;2023-03-16T14:25:41;101452.28;;;13.58
49785;BMP280;35679;38.732;-121.358;2023-03-16T14:28:32;101456.09;;;13.56
49785;BMP280;35679;38.732;-121.358;2023-03-16T14:31:33;101453.63;;;13.54
49785;BMP280;35679;38.732;-121.358;2023-03-16T14:34:28;101449.97;;;13.55
49785;BMP280;35679;38.732;-121.358;2023-03-16T14:37:18;101446.47;;;13.55
49785;BMP280;35679;38.732;-121.358;2023-03-16T14:40:24;101449.81;;;13.57
49785;BMP280;35679;38.732;-121.358;2023-03-16T14:43:15;101451.63;;;13.56
49785;BMP280;35679;38.732;-121.358;2023-03-16T14:46:05;101456.28;;;13.54
49785;BMP280;35679;38.732;-121.358;2023-03-16T14:49:26;101462.22;;;13.56
49785;BMP280;35679;38.732;-121.358;2023-03-16T14:52:28;101456.09;;;13.56
49785;BMP280;35679;38.732;-121.358;2023-03-16T14:55:19;101461.06;;;13.59
49785;BMP280;35679;38.732;-121.358;2023-03-16T14:58:10;101462.22;;;13.56
49785;BMP280;35679;38.732;-121.358;2023-03-16T15:01:00;101468.38;;;13.57
49785;BMP280;35679;38.732;-121.358;2023-03-16T15:03:49;101472.34;;;13.53
49785;BMP280;35679;38.732;-121.358;2023-03-16T15:06:38;101465.88;;;13.55
49785;BMP280;35679;38.732;-121.358;2023-03-16T15:09:34;101468.53;;;13.55
49785;BMP280;35679;38.732;-121.358;2023-03-16T15:12:24;101471.03;;;13.57
49785;BMP280;35679;38.732;-121.358;2023-03-16T15:15:16;101482.25;;;13.59
49785;BMP280;35679;38.732;-121.358;2023-03-16T15:18:06;101479.78;;;13.57
49785;BMP280;35679;38.732;-121.358;2023-03-16T15:20:56;101473.31;;;13.60
49785;BMP280;35679;38.732;-121.358;2023-03-16T15:23:46;101470.84;;;13.58
49785;BMP280;35679;38.732;-121.358;2023-03-16T15:26:35;101473.66;;;13.57
49785;BMP280;35679;38.732;-121.358;2023-03-16T15:29:24;101481.63;;;13.57
49785;BMP280;35679;38.732;-121.358;2023-03-16T15:32:14;101486.75;;;13.58
49785;BMP280;35679;38.732;-121.358;2023-03-16T15:35:04;101483.13;;;13.59
49785;BMP280;35679;38.732;-121.358;2023-03-16T15:37:54;101482.94;;;13.61
49785;BMP280;35679;38.732;-121.358;2023-03-16T15:40:44;101480.97;;;13.63
49785;BMP280;35679;38.732;-121.358;2023-03-16T15:43:35;101491.56;;;13.63
49785;BMP280;35679;38.732;-121.358;2023-03-16T15:46:27;101488.91;;;13.63
49785;BMP280;35679;38.732;-121.358;2023-03-16T15:49:17;101489.56;;;13.65
49785;BMP280;35679;38.732;-121.358;2023-03-16T15:52:25;101492.22;;;13.65
49785;BMP280;35679;38.732;-121.358;2023-03-16T15:55:21;101492.38;;;13.71
49785;BMP280;35679;38.732;-121.358;2023-03-16T15:58:20;101496.34;;;13.67
49785;BMP280;35679;38.732;-121.358;2023-03-16T16:01:23;101495.53;;;13.67
49785;BMP280;35679;38.732;-121.358;2023-03-16T16:04:16;101509.59;;;13.67
49785;BMP280;35679;38.732;-121.358;2023-03-16T16:07:10;101504.16;;;13.69
49785;BMP280;35679;38.732;-121.358;2023-03-16T16:10:00;101504.81;;;13.71
49785;BMP280;35679;38.732;-121.358;2023-03-16T16:12:52;101506.28;;;13.73
49785;BMP280;35679;38.732;-121.358;2023-03-16T16:15:42;101508.75;;;13.74
49785;BMP280;35679;38.732;-121.358;2023-03-16T16:18:33;101503.31;;;13.76
49785;BMP280;35679;38.732;-121.358;2023-03-16T16:21:26;101504.81;;;13.71
49785;BMP280;35679;38.732;-121.358;2023-03-16T16:24:18;101505.66;;;13.71
49785;BMP280;35679;38.732;-121.358;2023-03-16T16:27:09;101508.31;;;13.71
49785;BMP280;35679;38.732;-121.358;2023-03-16T16:30:00;101505.28;;;13.74
49785;BMP280;35679;38.732;-121.358;2023-03-16T16:32:49;101508.75;;;13.74
49785;BMP280;35679;38.732;-121.358;2023-03-16T16:35:38;101510.59;;;13.74
49785;BMP280;35679;38.732;-121.358;2023-03-16T16:38:30;101512.44;;;13.74
49785;BMP280;35679;38.732;-121.358;2023-03-16T16:41:26;101511.09;;;13.77
49785;BMP280;35679;38.732;-121.358;2023-03-16T16:44:19;101504.63;;;13.80